Weather observations for the past three days for
Curtis L Brown Jr. Field Airport
Metric (Imperial)
Date Time (edt) Wind (kph) Vis. (km) Weather Sky Cond. Temperature (ºC) Relative Humidity Wind Chill (°C) Heat Index (°C) Pressure Precipitation (cm)
Air Dwpt 6 hour altimeter (cm) sea level (mb) 1 hr 3 hr 6 hr
Max. Min.
04 03:15 S 13 16.09 Fair CLR 11 8.5 85% 76.38 0.0
04 02:55 S 9 16.09 Fair CLR 11.1 8.3 83% 76.4 0.0
04 02:35 SW 9 16.09 Fair CLR 11.5 8.3 81% 76.4 0.0
04 02:15 SW 9 16.09 Fair CLR 11.4 8.3 81% 76.4 0.0
04 01:55 SW 11 16.09 Fair CLR 11.5 8.3 17.1 11.5 81% 76.4 0.0
04 01:35 SW 11 16.09 Fair CLR 11.9 8.3 79% 76.43 0.0
04 01:15 S 11 16.09 Fair CLR 12.4 8.2 76% 76.43 0.0
04 00:55 S 13 16.09 Fair CLR 12.4 8.3 76% 76.43 0.0
04 00:35 SW 11 16.09 Fair CLR 12.4 8.3 76% 76.43 0.0
04 00:15 S 15 16.09 Fair CLR 12.6 8.2 75% 76.43 0.0
03 23:55 S 15 16.09 Fair CLR 12.7 8.2 74% 76.43 0.0
03 23:35 S 13 16.09 Fair CLR 12.7 8.1 74% 76.43 0.0
03 23:15 S 13 16.09 Fair CLR 12.7 7.9 73% 76.4 0.0
03 22:55 S 13 16.09 Fair CLR 12.8 7.6 71% 76.43 0.0
03 22:35 S 13 16.09 Fair CLR 12.8 7.3 69% 76.4 0.0
03 22:15 S 17 16.09 Fair CLR 12.7 7 69% 76.4 0.0
03 21:55 S 11 16.09 Fair CLR 13.8 6.4 61% 76.38 0.0
03 21:35 S 11 16.09 Fair CLR 13.9 6.4 61% 76.35 0.0
03 21:15 S 11 16.09 Fair CLR 14.5 6.3 58% 76.35 0.0
03 20:55 S 11 16.09 Fair CLR 14.9 6.5 57% 76.33 0.0
03 20:35 S 9 16.09 Fair CLR 15.6 6 53% 76.3 0.0
03 20:15 S 9 16.09 Fair CLR 16.5 5.5 48% 76.3 0.0
03 19:55 S 7 16.09 Fair CLR 17.3 4.9 20.6 17.2 44% 76.28 0.0
03 19:35 SW 7 16.09 Fair CLR 18.2 4.4 40% 76.28 0.0
03 19:15 SW 9 16.09 Fair CLR 18.8 3.8 37% 76.28 0.0
03 18:55 SW 11 16.09 Fair CLR 19.4 3.2 34% 76.28 0.0
03 18:35 SW 13 16.09 Fair CLR 19.9 2.7 32% 76.28 0.0
03 18:15 W 13 16.09 Fair CLR 20.1 1.7 30% 76.28 0.0
03 17:55 W 15 16.09 Fair CLR 20.3 1.7 29% 76.28 0.0
03 17:35 SW 17 16.09 Fair CLR 20.2 2.2 30% 76.25 0.0
03 17:15 SW 15 16.09 Fair CLR 20.2 2.1 30% 76.25 0.0
03 16:55 W 9 16.09 Fair CLR 20.1 2 30% 76.28 0.0
03 16:35 W 11 16.09 Fair CLR 20.3 1.9 30% 76.3 0.0
03 16:15 NW 20 16.09 Fair CLR 20.1 2.1 30% 76.3 0.0
03 15:55 W 13 16.09 Fair CLR 19.7 2.2 31% 76.33 0.0
03 15:35 W 13 G 30 16.09 Fair CLR 19.7 1.7 30% 76.33 0.0
03 15:15 W 20 G 33 16.09 Fair CLR 19.2 1.9 32% 76.35 0.0
03 14:55 W 19 16.09 Fair CLR 19.5 2.6 33% 76.38 0.0
03 14:35 W 20 G 30 16.09 Fair CLR 18.8 1.8 32% 76.4 0.0
03 14:15 NW 19 16.09 Fair CLR 18.9 2.9 35% 76.43 0.0
03 13:55 W 17 16.09 Fair CLR 18.3 2.8 18.7 9.1 36% 76.43 0.0
03 13:35 W 20 G 30 16.09 Fair CLR 18.2 3.1 37% 76.45 0.0
03 13:15 NW 19 G 30 16.09 Fair CLR 17.3 2 36% 76.45 0.0
03 12:55 SW 17 16.09 Fair CLR 17.1 2.2 37% 76.48 0.0
03 12:35 W 11 16.09 Fair CLR 16.2 2 39% 76.5 0.0
03 12:15 NW 11 16.09 Fair CLR 15.8 1.6 38% 76.53 0.0
03 11:55 NW 13 16.09 Fair CLR 16 2.2 40% 76.53 0.0
03 11:35 N 9 16.09 Fair CLR 15.2 1.8 41% 76.53 0.0
03 11:15 N 17 16.09 Fair CLR 15 2.1 42% 76.53 0.0
03 10:55 NW 17 G 30 16.09 Fair CLR 14.8 1 39% 76.53 0.0
03 10:35 N 19 G 28 16.09 Fair CLR 14.3 1.5 42% 76.53 0.0
03 10:15 N 15 16.09 Fair CLR 13.7 3.7 51% 76.53 0.0
03 09:55 NW 9 16.09 Fair CLR 12.8 3.9 55% 76.53 0.0
03 09:35 N 13 16.09 Fair CLR 12.1 4.5 60% 76.5 0.0
03 09:15 N 13 16.09 Fair CLR 11.8 4.9 63% 76.53 0.0
03 08:55 NW 13 16.09 Fair CLR 11.1 4.6 65% 76.53 0.0
03 08:35 NW 15 16.09 Fair CLR 10.3 4.8 69% 76.5 0.0
03 08:15 NW 13 16.09 Fair CLR 9.8 5.1 73% 8 76.48 0.0
03 07:55 NW 13 16.09 Fair CLR 9.1 5 9.2 6.6 76% 7 76.48 0.0
03 07:35 NW 11 16.09 Fair CLR 8.5 4.8 78% 7 76.45 0.0
03 07:15 N 9 16.09 Fair CLR 7.9 5 82% 7 76.43 0.0
03 06:55 NW 11 16.09 Fair CLR 7.4 5.2 86% 6 76.4 0.0
03 06:35 NW 9 16.09 Fair CLR 6.9 5.5 91% 5 76.35 0.0
03 06:15 NW 9 16.09 Fair CLR 6.8 5.6 92% 5 76.33 0.0
03 05:55 NW 7 16.09 Fair CLR 6.9 6 94% 6 76.33 0.0
03 05:35 NW 7 16.09 Fair CLR 7.1 6.3 95% 6 76.3 0.0
03 05:15 NW 6 16.09 Fair CLR 7.3 6.5 95% 76.3 0.0
03 04:55 NW 7 16.09 Fair CLR 7.7 6.9 95% 7 76.28 0.0
03 04:35 W 6 16.09 Fair CLR 7.8 7.3 97% 76.28 0.0
03 04:15 NW 7 16.09 Fair CLR 8.1 7.6 97% 7 76.25 0.0
03 03:55 W 9 16.09 Fair CLR 8.4 8.1 98% 7 76.23 0.0
03 03:35 W 11 16.09 Fair CLR 8.4 8.1 98% 7 76.23 0.0
03 03:15 W 9 16.09 Fair CLR 8.3 8 98% 7 76.2 0.0
03 02:55 W 9 16.09 Partly Cloudy SCT120 8.6 8.3 98% 7 76.2 0.0
03 02:35 W 7 16.09 Partly Cloudy SCT120 8.7 8.5 99% 8 76.17 0.0
03 02:15 W 9 16.09 Fair CLR 8.8 8.6 99% 8 76.17 0.0
03 01:55 W 7 16.09 Partly Cloudy SCT120 9 8.8 11.5 8.9 99% 8 76.17 0.0 0.03
03 01:35 NW 7 11.27 Fair CLR 9.1 8.9 99% 8 76.17 0.0
03 01:15 NW 6 11.27 Fog/Mist CLR 9.3 9.1 99% 76.17 0.0
03 00:55 NW 6 11.27 Fair CLR 10 9 94% 76.17 0.0
03 00:35 NW 6 11.27 Fog/Mist CLR 9.7 9.5 99% 76.15 0.0
03 00:15 W 6 8.05 Fog/Mist CLR 10 9.8 99% 76.12 0.0
02 23:55 NW 6 8.05 Fog/Mist SCT003 10.2 10 99% 76.12 0.0
02 23:35 NW 6 11.27 Fog/Mist SCT003 10.4 10.2 99% 76.1 0.0
02 23:15 Calm 16.09 Partly Cloudy SCT003 SCT120 10.7 10.4 98% 76.1 0.0
02 22:55 NW 7 16.09 Mostly Cloudy SCT003 BKN120 11.1 10.8 98% 76.1 0.0
02 22:35 N 7 16.09 Mostly Cloudy BKN120 11.2 10.8 97% 76.1 0.0
02 22:15 NW 6 16.09 Overcast OVC120 11.2 10.8 97% 76.1 0.0
02 21:55 N 7 16.09 Overcast OVC110 11.2 10.9 98% 76.07 0.0
02 21:35 N 7 16.09 Overcast SCT004 SCT008 OVC120 11.3 11 98% 76.07 0.0
02 21:15 NW 7 16.09 Overcast SCT004 SCT008 OVC120 11.3 11 98% 76.02 0.0
02 20:55 N 6 16.09 Mostly Cloudy BKN120 11.4 11 97% 76 0.0
02 20:35 N 6 16.09 Mostly Cloudy BKN100 BKN120 11.4 10.9 97% 75.97 0.0
02 20:15 N 6 16.09 Overcast OVC090 11.3 10.8 97% 75.95 0.0
02 19:55 N 9 16.09 Overcast SCT007 OVC090 11.4 10.9 13.6 11.3 97% 75.95 0.0 0.23
02 19:35 N 7 16.09 Light Drizzle BKN007 BKN017 OVC090 11.5 11.1 97% 75.95 0.0
02 19:15 N 7 16.09 Light Drizzle BKN007 BKN012 OVC018 11.6 11.2 97% 75.92 0.0
02 18:55 N 9 11.27 Light Rain Fog/Mist BKN007 OVC012 11.7 11.2 97% 75.92 0.0
02 18:35 N 9 16.09 Overcast BKN007 BKN014 OVC019 11.7 11.1 96% 75.92 0.0
02 18:15 N 13 11.27 Overcast OVC007 11.6 11.1 97% 75.92 0.0
02 17:55 N 11 11.27 Light Drizzle Fog/Mist BKN007 OVC011 11.6 11.1 97% 75.92 0.0
02 17:35 N 11 8.05 Light Drizzle Fog/Mist OVC007 11.6 11.1 97% 75.9 0.0
02 17:15 N 17 11.27 Light Drizzle OVC007 11.9 11.3 96% 75.87 0.0
02 16:55 N 15 11.27 Light Drizzle Fog/Mist OVC007 12.3 11.7 96% 75.87 0.0 0.23
02 16:35 N 11 16.09 Overcast BKN005 OVC011 12.5 12 97% 75.87 0.0
02 16:15 N 11 16.09 Overcast BKN007 OVC011 12.8 12.2 96% 75.84 0.0
02 15:55 N 9 16.09 Light Rain BKN007 OVC013 13.3 12.7 96% 75.84 0.0 0.08
02 15:35 N 9 16.09 Light Rain BKN007 BKN011 OVC016 13.3 12.8 97% 75.84 0.0 0.08
02 15:15 NE 9 11.27 Light Rain BKN007 BKN012 OVC025 13.1 12.6 97% 75.84 0.0 0.05
02 14:55 N 11 6.44 Rain Fog/Mist BKN007 OVC013 13 12.6 97% 75.9 0.0 0.15
02 14:35 N 11 8.05 Light Rain Fog/Mist BKN005 OVC010 13 12.6 97% 75.92 0.0 0.08
02 14:15 N 9 6.44 Light Rain Fog/Mist OVC005 13 12.6 97% 75.9 0.0 0.03
02 13:55 N 9 3.22 Light Rain Fog/Mist OVC003 12.9 12.6 13.4 12.4 98% 75.9 0.0 0.15 0.69
02 13:35 N 6 3.22 Light Rain Fog/Mist OVC005 13 12.7 98% 75.92 0.0 0.1
02 13:15 N 9 11.27 Light Rain Fog/Mist BKN005 OVC010 12.9 12.5 97% 75.95 0.0 0.03
02 12:55 NE 7 11.27 Light Rain BKN005 OVC011 13 12.5 97% 75.9 0.0 0.18
02 12:35 N 7 6.44 Light Rain Fog/Mist BKN007 OVC013 12.7 12.2 97% 75.95 0.0 0.15
02 12:15 N 11 6.44 Light Rain Fog/Mist BKN007 OVC013 12.7 12.2 97% 75.97 0.0 0.1
02 11:55 N 11 8.05 Rain Fog/Mist BKN007 OVC011 12.7 12.2 97% 76.02 0.0 0.18
02 11:35 N 9 11.27 Light Rain Fog/Mist OVC007 12.8 12.3 97% 76 0.0 0.1
02 11:15 N 9 6.44 Light Rain Fog/Mist OVC007 12.6 12.1 97% 75.97 0.0 0.08
02 10:55 NE 9 8.05 Light Rain Fog/Mist BKN007 OVC013 12.5 11.9 96% 76 0.0 0.1 0.15
02 10:35 N 7 8.05 Light Rain Fog/Mist BKN009 OVC012 12.8 12.1 96% 76.02 0.0 0.08
02 10:15 N 7 11.27 Light Rain BKN009 OVC048 13 12 94% 76 0.0 0.03
02 09:55 N 13 16.09 Light Rain BKN009 OVC050 13.2 12.3 94% 75.95 0.0
02 09:35 N 9 16.09 Light Rain BKN007 BKN012 OVC050 13.1 12.4 96% 75.9 0.0
02 09:15 N 13 11.27 Overcast OVC007 13.1 12.6 97% 75.92 0.0
02 08:55 N 9 6.44 Light Rain Fog/Mist OVC005 13.1 12.7 97% 75.92 0.0 0.05
02 08:35 N 7 8.05 Light Rain Fog/Mist OVC005 12.7 12.4 98% 75.95 0.0 0.05
02 08:15 N 7 8.05 Light Rain Fog/Mist BKN007 BKN038 OVC048 12.7 12.4 98% 75.95 0.0 0.03
02 07:55 N 7 6.44 Light Rain Fog/Mist SCT007 BKN048 OVC050 12.6 12.3 14.8 12.5 98% 75.95 0.0 0.1 0.76
02 07:35 N 7 8.05 Light Rain Fog/Mist SCT018 BKN047 OVC050 12.6 12.2 97% 75.95 0.0 0.05
02 07:15 N 7 8.05 Light Rain Fog/Mist SCT016 BKN048 OVC050 12.7 12.4 98% 75.95 0.0 0.03
02 06:55 N 7 6.44 Light Rain Fog/Mist SCT003 OVC016 12.8 12.4 97% 75.92 0.0 0.08
02 06:35 N 6 8.05 Light Rain Fog/Mist SCT003 OVC016 12.9 12.6 98% 75.95 0.0 0.05
02 06:15 Calm 11.27 Light Rain Fog/Mist SCT003 OVC014 12.9 12.6 98% 75.92 0.0 0.03
02 05:55 N 7 11.27 Light Rain Fog/Mist SCT003 OVC014 13 12.6 97% 75.92 0.0 0.3
02 05:35 Calm 6.44 Rain Fog/Mist SCT003 BKN014 OVC019 13 12.7 98% 75.92 0.0 0.25
02 05:15 Calm 6.44 Rain Fog/Mist BKN014 BKN021 OVC025 13.1 12.7 97% 75.9 0.0 0.15
02 04:55 Calm 6.44 Heavy Rain Fog/Mist BKN012 BKN021 OVC033 13.2 12.6 96% 75.92 0.0 0.23 0.23
02 04:35 Calm 11.27 Rain BKN012 BKN019 OVC031 13.3 12.7 96% 75.92 0.0 0.1
02 04:15 N 6 11.27 Rain Fog/Mist SCT012 SCT021 OVC031 13.3 12.5 95% 75.87 0.0 0.05
02 03:55 N 7 16.09 Light Drizzle BKN012 OVC033 13.4 12.5 94% 75.87 0.0
02 03:35 N 7 16.09 Overcast BKN012 OVC035 13.7 12.6 93% 75.87 0.0
02 03:15 N 6 16.09 Light Rain BKN012 BKN035 OVC100 14.1 13 93% 75.87 0.0
02 02:35 NW 6 16.09 Overcast SCT038 BKN050 OVC110 14.5 13.1 91% 75.9 0.0
02 02:15 Calm 16.09 Overcast SCT050 OVC110 14.6 13.1 91% 75.9 0.0
02 01:55 Calm 16.09 Overcast SCT014 BKN050 OVC110 14.7 13.2 18.3 14.7 91% 75.92 0.0
02 01:35 Calm 16.09 Overcast SCT050 OVC110 14.8 13.3 91% 75.95 0.0
02 01:15 N 6 16.09 Overcast OVC120 14.9 13.1 89% 75.95 0.0
02 00:55 Calm 16.09 Overcast SCT060 OVC120 15.3 13 86% 75.97 0.0
02 00:35 Calm 16.09 Partly Cloudy SCT060 SCT120 15.3 12.9 86% 75.97 0.0
02 00:15 Calm 16.09 Partly Cloudy SCT027 SCT042 SCT055 15.9 12.4 80% 75.97 0.0
01 23:55 Calm 16.09 Mostly Cloudy SCT021 BKN027 BKN037 16.1 12.4 79% 75.97 0.0
01 23:35 SE 6 16.09 Mostly Cloudy BKN021 BKN026 BKN050 16.2 12.1 77% 76 0.0
01 23:15 Calm 16.09 Overcast BKN023 BKN029 OVC050 16.3 12 76% 76 0.0
01 22:55 Calm 16.09 Overcast OVC023 16.5 12.2 76% 76.02 0.0
01 22:35 SE 6 16.09 Overcast BKN025 OVC033 16.5 12.1 75% 76.02 0.0
01 22:15 SE 7 16.09 Mostly Cloudy SCT023 BKN033 16.3 12.3 77% 76.02 0.0
01 21:55 Calm 16.09 Partly Cloudy SCT037 16.5 12.6 78% 76.02 0.0
01 21:35 SE 7 16.09 Partly Cloudy SCT055 16.6 12.7 78% 76 0.0
01 21:15 SE 6 16.09 Fair CLR 16.5 12.9 79% 76 0.0
01 20:55 SE 7 16.09 Partly Cloudy SCT034 SCT050 SCT060 17.1 12.8 76% 75.97 0.0
01 20:35 Calm 16.09 Mostly Cloudy SCT034 SCT043 BKN050 17.6 12.8 74% 75.97 0.0
01 20:15 Calm 16.09 Overcast SCT034 BKN042 OVC055 18 12.9 72% 75.97 0.0
01 19:55 Calm 16.09 Overcast BKN032 OVC044 18.3 13 20.3 17.9 71% 75.95 0.0
01 19:35 Calm 16.09 Overcast OVC030 18.5 12.6 69% 76 0.0
01 19:15 Calm 16.09 Overcast BKN032 OVC039 18.6 12.8 69% 75.97 0.0
01 18:55 SE 6 16.09 Overcast SCT029 BKN035 OVC043 18.9 12.2 65% 75.97 0.0
01 18:35 S 7 16.09 Overcast OVC029 18.9 11.9 64% 76 0.0
01 18:15 SE 6 16.09 Overcast OVC029 19.2 12.1 64% 76 0.0
01 17:55 SE 7 16.09 Mostly Cloudy BKN031 BKN039 19.3 11.8 62% 75.97 0.0
01 17:35 E 7 16.09 Overcast OVC033 19.3 11.5 61% 75.97 0.0
01 17:15 SE 7 16.09 Overcast OVC033 19.4 11.4 60% 76 0.0
01 16:55 Calm 16.09 Overcast OVC033 19.2 10.9 59% 76 0.0
01 16:35 E 7 16.09 Overcast OVC035 19.6 10.9 57% 76 0.0
01 16:15 E 6 16.09 Overcast OVC033 19.4 10.2 55% 76 0.0
01 15:55 E 6 16.09 Overcast OVC033 19.3 9.6 54% 76.05 0.0
01 15:35 NE 9 16.09 Overcast OVC035 19.7 9.8 53% 76.05 0.0
01 15:15 NE 9 16.09 Partly Cloudy SCT035 SCT049 19.3 9.2 52% 76.05 0.0
01 14:55 E 9 16.09 Fair CLR 19.3 8.6 50% 76.07 0.0
01 14:35 E 9 16.09 Fair CLR 19.3 8.3 49% 76.07 0.0
01 14:15 E 7 16.09 Fair CLR 18.2 7.4 50% 76.1 0.0
01 13:55 Calm 16.09 Fair CLR 18.1 7.1 19.1 13.6 49% 76.12 0.0
01 13:35 E 9 16.09 Fair CLR 18 6.3 47% 76.15 0.0
01 13:15 E 11 16.09 Fair CLR 17.9 6 46% 76.15 0.0
01 12:55 E 11 16.09 Fair CLR 17.6 5.5 45% 76.15 0.0
01 12:35 E 13 16.09 Fair CLR 16.7 4.3 44% 76.17 0.0
01 12:15 NE 15 16.09 Fair CLR 16 3.8 44% 76.2 0.0
01 11:55 NE 13 16.09 Fair CLR 15.4 4 47% 76.2 0.0
01 11:35 NE 11 16.09 Fair CLR 14.8 3.6 47% 76.2 0.0
01 11:15 NE 9 16.09 Fair CLR 15 3.9 48% 76.23 0.0
01 10:55 NE 17 16.09 Fair CLR 14.8 3.9 48% 76.2 0.0
01 10:35 NE 19 G 28 16.09 Mostly Cloudy BKN050 14.6 4.2 50% 76.17 0.0
01 10:15 N 9 16.09 Overcast OVC050 14.7 4.1 49% 76.23 0.0
01 09:55 NE 13 16.09 Overcast SCT048 OVC055 14.8 4 49% 76.23 0.0
01 09:35 NE 11 16.09 Mostly Cloudy SCT045 BKN055 BKN070 15.5 4.5 48% 76.17 0.0
01 09:15 NE 13 16.09 Partly Cloudy SCT055 15.3 3.8 46% 76.15 0.0
01 08:55 NE 15 16.09 Mostly Cloudy SCT041 BKN055 14.2 3.4 48% 76.15 0.0
01 08:35 NE 17 16.09 Overcast SCT041 OVC055 13.7 3 49% 76.17 0.0
01 08:15 NE 11 16.09 Overcast OVC055 13.6 3.3 50% 76.17 0.0
01 07:55 NE 7 16.09 Overcast OVC055 13.7 3.7 16 13.6 51% 76.17 0.0
01 07:35 NE 7 16.09 Overcast OVC055 13.7 3.9 52% 76.17 0.0
01 07:15 NE 9 16.09 Overcast SCT046 OVC055 13.6 4.6 55% 76.15 0.0
01 06:55 NE 7 16.09 Overcast OVC046 13.7 4.9 56% 76.15 0.0
01 06:35 NE 9 16.09 Overcast OVC046 13.8 4.8 55% 76.12 0.0
01 06:15 NE 9 16.09 Overcast BKN048 OVC075 14.1 4.5 53% 76.1 0.0
01 05:55 NE 13 16.09 Overcast OVC046 14.5 4.7 52% 76.07 0.0
01 05:35 NE 13 16.09 Overcast BKN046 OVC050 14.8 4.9 52% 76.1 0.0
01 05:15 NE 17 16.09 Overcast BKN046 OVC050 14.8 5.4 54% 76.07 0.0
01 04:55 NE 11 16.09 Overcast OVC044 15.3 5.3 52% 76.07 0.0
01 04:35 NE 11 16.09 Overcast OVC044 15.5 5.7 52% 76.05 0.0
01 04:15 N 11 16.09 Overcast OVC044 15.7 6.9 56% 76.02 0.0
01 03:55 N 9 16.09 Overcast OVC046 15.7 8.5 62% 76 0.0
Date Time (edt) Wind (kph) Vis. (km) Weather Sky Cond. Air Dwpt Max. Min. Relative Humidity Wind Chill (°C) Heat Index (°C) altimeter (cm) sea level (mb) 1 hr 3 hr 6 hr
6 hour
Temperature (ºC) Pressure Precipitation (cm)